Time;durP1;ratioP1;P1;durP2;ratioP2;P2;SDS_P1;SDS_P2;PMS_P1;PMS_P2;Temp;Humidity;BMP_temperature;BMP_pressure;BME280_temperature;BME280_humidity;BME280_pressure;Samples;Min_cycle;Max_cycle;Signal;HPM_P1;HPM_P2
2022/06/08 00:00:08;;;;;;;123.00;89.30;;;;;;;;;;5034813;28;20249;-51
2022/06/08 00:02:34;;;;;;;80.57;73.15;;;;;;;;;;5043212;28;20289;-52
2022/06/08 00:05:00;;;;;;;111.95;88.32;;;;;;;;;;5039564;28;20196;-54
2022/06/08 00:07:26;;;;;;;90.43;79.90;;;;;;;;;;5037153;28;20255;-52
2022/06/08 00:09:52;;;;;;;112.25;87.72;;;;;;;;;;5039262;28;20639;-52
2022/06/08 00:12:18;;;;;;;163.93;101.55;;;;;;;;;;5040248;28;20264;-51
2022/06/08 00:14:45;;;;;;;133.00;96.53;;;;;;;;;;5037562;28;20187;-51
2022/06/08 00:17:11;;;;;;;124.82;90.32;;;;;;;;;;5040170;28;20176;-51
2022/06/08 00:19:37;;;;;;;109.95;88.70;;;;;;;;;;5042413;28;20246;-51
2022/06/08 00:22:03;;;;;;;105.10;87.70;;;;;;;;;;5050084;28;20290;-51
2022/06/08 00:24:29;;;;;;;88.43;79.18;;;;;;;;;;5049936;28;20207;-52
2022/06/08 00:26:55;;;;;;;143.60;94.55;;;;;;;;;;5041784;28;20230;-51
2022/06/08 00:29:21;;;;;;;118.35;86.35;;;;;;;;;;5026618;28;20577;-52
2022/06/08 00:31:47;;;;;;;107.68;84.90;;;;;;;;;;5043877;28;20215;-52
2022/06/08 00:34:13;;;;;;;123.93;88.03;;;;;;;;;;5043087;28;20624;-51
2022/06/08 00:36:39;;;;;;;83.70;75.18;;;;;;;;;;5047023;28;20215;-51
2022/06/08 00:39:05;;;;;;;113.20;84.13;;;;;;;;;;5039685;28;20276;-51
2022/06/08 00:41:34;;;;;;;96.43;80.43;;;;;;;;;;5044030;28;20643;-52
2022/06/08 00:44:02;;;;;;;100.03;81.38;;;;;;;;;;5045156;28;20211;-52
2022/06/08 00:46:28;;;;;;;99.80;80.20;;;;;;;;;;5045207;28;20706;-52
2022/06/08 00:48:56;;;;;;;107.25;82.90;;;;;;;;;;5045310;28;20341;-52
2022/06/08 00:51:22;;;;;;;147.73;93.88;;;;;;;;;;5043414;28;21140;-52
2022/06/08 00:53:56;;;;;;;145.07;93.20;;;;;;;;;;5042863;28;20190;-52
2022/06/08 00:56:25;;;;;;;107.45;79.78;;;;;;;;;;5049641;28;20175;-52
2022/06/08 00:58:52;;;;;;;116.20;84.35;;;;;;;;;;5048823;28;20211;-52
2022/06/08 01:01:18;;;;;;;135.57;87.35;;;;;;;;;;5048941;28;20263;-52
2022/06/08 01:03:44;;;;;;;119.63;84.68;;;;;;;;;;5050953;28;20227;-52
2022/06/08 01:06:18;;;;;;;102.65;78.80;;;;;;;;;;5043208;28;20212;-51
2022/06/08 01:08:54;;;;;;;88.47;74.05;;;;;;;;;;5047982;28;20264;-52
2022/06/08 01:11:35;;;;;;;97.10;75.22;;;;;;;;;;5055354;28;20951;-51
2022/06/08 01:14:03;;;;;;;115.90;83.63;;;;;;;;;;5041730;28;20964;-52
2022/06/08 01:16:30;;;;;;;120.22;85.72;;;;;;;;;;5043577;28;20212;-52
2022/06/08 01:18:56;;;;;;;92.35;76.68;;;;;;;;;;5046751;28;20720;-52
2022/06/08 01:21:22;;;;;;;93.80;76.75;;;;;;;;;;5031350;28;20218;-51
2022/06/08 01:23:54;;;;;;;82.72;74.22;;;;;;;;;;5047323;28;20522;-52
2022/06/08 01:26:23;;;;;;;120.20;85.07;;;;;;;;;;5042216;28;20199;-51
2022/06/08 01:29:02;;;;;;;120.07;83.88;;;;;;;;;;5036620;28;20738;-51
2022/06/08 01:31:28;;;;;;;87.68;73.45;;;;;;;;;;5046840;28;20214;-51
2022/06/08 01:34:04;;;;;;;72.15;66.18;;;;;;;;;;5041822;28;20595;-52
2022/06/08 01:36:56;;;;;;;147.25;91.47;;;;;;;;;;5041757;28;20211;-51
2022/06/08 01:39:30;;;;;;;95.07;73.10;;;;;;;;;;5013347;28;20216;-51
2022/06/08 01:41:56;;;;;;;97.28;74.43;;;;;;;;;;5042436;28;20220;-51
2022/06/08 01:44:40;;;;;;;125.65;86.38;;;;;;;;;;5042195;28;20192;-51
2022/06/08 01:47:06;;;;;;;88.28;73.65;;;;;;;;;;5041685;28;20302;-51
2022/06/08 01:49:44;;;;;;;120.20;86.93;;;;;;;;;;5045988;28;20226;-51
2022/06/08 01:52:25;;;;;;;115.30;84.38;;;;;;;;;;5036726;28;20211;-52
2022/06/08 01:54:58;;;;;;;109.78;81.43;;;;;;;;;;5040233;28;20211;-52
2022/06/08 01:57:43;;;;;;;112.00;81.18;;;;;;;;;;5039777;28;20231;-52
2022/06/08 02:00:20;;;;;;;121.13;85.15;;;;;;;;;;5040757;28;20284;-52
2022/06/08 02:02:49;;;;;;;74.50;67.97;;;;;;;;;;5040177;28;20349;-52
2022/06/08 02:05:41;;;;;;;130.95;88.47;;;;;;;;;;5046632;28;20184;-51
2022/06/08 02:08:10;;;;;;;117.65;79.57;;;;;;;;;;5030967;28;20286;-51
2022/06/08 02:10:51;;;;;;;97.75;75.57;;;;;;;;;;5043847;28;20772;-52
2022/06/08 02:13:21;;;;;;;95.95;71.95;;;;;;;;;;5040032;28;20211;-52
2022/06/08 02:15:49;;;;;;;90.53;74.65;;;;;;;;;;5039142;28;20224;-51
2022/06/08 02:18:20;;;;;;;135.85;86.95;;;;;;;;;;5047782;28;20276;-51
2022/06/08 02:20:51;;;;;;;125.18;84.93;;;;;;;;;;5042385;28;20203;-52
2022/06/08 02:23:23;;;;;;;124.63;82.43;;;;;;;;;;5048428;28;20180;-52
2022/06/08 02:25:56;;;;;;;85.00;70.68;;;;;;;;;;5043559;28;20740;-52
2022/06/08 02:28:29;;;;;;;99.32;74.53;;;;;;;;;;5048376;28;20215;-51
2022/06/08 02:31:03;;;;;;;99.65;76.78;;;;;;;;;;5036620;28;20683;-52
2022/06/08 02:36:26;;;;;;;118.05;80.78;;;;;;;;;;5039892;28;20273;-52
2022/06/08 02:38:55;;;;;;;107.88;76.47;;;;;;;;;;5042271;28;24470;-52
2022/06/08 02:41:22;;;;;;;128.80;84.55;;;;;;;;;;5044875;28;20180;-52
2022/06/08 02:43:51;;;;;;;103.60;79.63;;;;;;;;;;5037670;28;20239;-52
2022/06/08 02:46:20;;;;;;;72.75;65.25;;;;;;;;;;5042057;28;20619;-52
2022/06/08 02:48:46;;;;;;;76.03;68.18;;;;;;;;;;5042788;28;20790;-52
2022/06/08 02:51:12;;;;;;;101.25;78.63;;;;;;;;;;5038464;28;20215;-52
2022/06/08 02:53:42;;;;;;;102.22;77.95;;;;;;;;;;5041366;28;20648;-52
2022/06/08 02:56:08;;;;;;;87.63;74.63;;;;;;;;;;5048920;28;20191;-51
2022/06/08 02:58:47;;;;;;;104.10;77.30;;;;;;;;;;5048544;28;20241;-52
2022/06/08 03:01:15;;;;;;;145.23;88.85;;;;;;;;;;5036626;28;20227;-52
2022/06/08 03:03:43;;;;;;;84.63;69.70;;;;;;;;;;5046734;28;20273;-52
2022/06/08 03:06:11;;;;;;;103.75;76.72;;;;;;;;;;5040402;28;20674;-51
2022/06/08 03:08:40;;;;;;;118.50;90.80;;;;;;;;;;5042028;28;20223;-52
2022/06/08 03:11:07;;;;;;;79.63;69.43;;;;;;;;;;5047475;28;20262;-51
2022/06/08 03:13:45;;;;;;;114.20;84.47;;;;;;;;;;5043388;28;20218;-51
2022/06/08 03:16:24;;;;;;;105.68;79.03;;;;;;;;;;5036767;28;20564;-52
2022/06/08 03:18:50;;;;;;;78.32;70.95;;;;;;;;;;5038540;28;20257;-52
2022/06/08 03:21:17;;;;;;;105.13;81.82;;;;;;;;;;5042908;28;20223;-52
2022/06/08 03:23:43;;;;;;;90.30;78.88;;;;;;;;;;5040226;28;20287;-52
2022/06/08 03:26:08;;;;;;;87.45;74.45;;;;;;;;;;5043415;28;20174;-52
2022/06/08 03:28:34;;;;;;;83.85;73.07;;;;;;;;;;5044503;28;20595;-52
2022/06/08 03:31:00;;;;;;;105.75;82.47;;;;;;;;;;5043797;28;20204;-52
2022/06/08 03:33:26;;;;;;;94.65;75.05;;;;;;;;;;5041300;28;20250;-51
2022/06/08 03:35:52;;;;;;;92.07;75.82;;;;;;;;;;5040230;28;20826;-52
2022/06/08 03:38:18;;;;;;;110.38;80.78;;;;;;;;;;5040821;28;20227;-52
2022/06/08 03:40:44;;;;;;;82.97;73.85;;;;;;;;;;5041218;28;20710;-52
2022/06/08 03:43:10;;;;;;;96.30;78.60;;;;;;;;;;5045023;28;20253;-52
2022/06/08 03:45:41;;;;;;;100.03;77.20;;;;;;;;;;5035094;28;20649;-52
2022/06/08 03:48:07;;;;;;;76.60;69.15;;;;;;;;;;5042243;28;20231;-52
2022/06/08 03:50:34;;;;;;;101.95;80.15;;;;;;;;;;5040456;28;20431;-52
2022/06/08 03:53:02;;;;;;;78.03;69.38;;;;;;;;;;5042124;28;20188;-52
2022/06/08 03:55:29;;;;;;;85.67;70.57;;;;;;;;;;5041240;28;20261;-52
2022/06/08 03:57:55;;;;;;;96.15;74.90;;;;;;;;;;5043489;28;20560;-52
2022/06/08 04:00:23;;;;;;;115.15;78.63;;;;;;;;;;5038144;28;20219;-52
2022/06/08 04:02:50;;;;;;;81.32;71.10;;;;;;;;;;5039863;28;20273;-52
2022/06/08 04:05:16;;;;;;;91.28;72.93;;;;;;;;;;5044648;28;20652;-52
2022/06/08 04:07:42;;;;;;;74.13;66.93;;;;;;;;;;5042156;28;20219;-52
2022/06/08 04:10:09;;;;;;;78.80;68.32;;;;;;;;;;5044685;28;20708;-52
2022/06/08 04:12:35;;;;;;;92.00;69.75;;;;;;;;;;5037550;28;20219;-52
2022/06/08 04:15:01;;;;;;;80.22;66.63;;;;;;;;;;5040797;28;20273;-51
2022/06/08 04:17:27;;;;;;;118.15;76.20;;;;;;;;;;5043473;28;20215;-52
2022/06/08 04:19:53;;;;;;;129.82;80.47;;;;;;;;;;5039607;28;20216;-52
2022/06/08 04:22:20;;;;;;;88.82;67.47;;;;;;;;;;5038483;28;20215;-52
2022/06/08 04:24:46;;;;;;;65.55;60.22;;;;;;;;;;5041264;28;20219;-52
2022/06/08 04:27:12;;;;;;;93.47;70.10;;;;;;;;;;5037457;28;20564;-52
2022/06/08 04:29:39;;;;;;;122.85;84.25;;;;;;;;;;5041762;28;20231;-51
2022/06/08 04:32:05;;;;;;;82.10;68.90;;;;;;;;;;5042318;28;20184;-52
2022/06/08 04:34:32;;;;;;;95.60;74.45;;;;;;;;;;5041251;28;20207;-52
2022/06/08 04:36:58;;;;;;;77.38;68.00;;;;;;;;;;5049152;28;20222;-52
2022/06/08 04:39:24;;;;;;;101.38;76.15;;;;;;;;;;5040342;28;20211;-52
2022/06/08 04:41:50;;;;;;;95.38;74.50;;;;;;;;;;5027210;28;20239;-52
2022/06/08 04:44:16;;;;;;;115.07;80.20;;;;;;;;;;5039832;28;20188;-52
2022/06/08 04:46:42;;;;;;;88.47;69.20;;;;;;;;;;5039501;28;20256;-52
2022/06/08 04:49:08;;;;;;;76.93;68.83;;;;;;;;;;5037011;28;20269;-52
2022/06/08 04:51:35;;;;;;;79.45;70.15;;;;;;;;;;5037802;28;20575;-52
2022/06/08 04:54:01;;;;;;;86.07;73.18;;;;;;;;;;5040024;28;20276;-52
2022/06/08 04:56:26;;;;;;;87.28;73.70;;;;;;;;;;5042194;28;20274;-52
2022/06/08 04:58:54;;;;;;;108.43;84.60;;;;;;;;;;5041248;28;20328;-52
2022/06/08 05:01:20;;;;;;;111.43;81.38;;;;;;;;;;5039328;28;20258;-52
2022/06/08 05:03:46;;;;;;;80.47;72.05;;;;;;;;;;5045456;28;20255;-52
2022/06/08 05:06:12;;;;;;;137.57;87.88;;;;;;;;;;5043064;28;20239;-51
2022/06/08 05:08:40;;;;;;;90.00;78.13;;;;;;;;;;5044145;28;20332;-51
2022/06/08 05:11:07;;;;;;;86.23;77.00;;;;;;;;;;5049990;28;20755;-52
2022/06/08 05:13:33;;;;;;;85.72;76.53;;;;;;;;;;5045325;28;20676;-52
2022/06/08 05:16:01;;;;;;;99.85;83.28;;;;;;;;;;5040769;28;21723;-52
2022/06/08 05:18:27;;;;;;;155.05;99.10;;;;;;;;;;5029977;28;20223;-53
2022/06/08 05:20:54;;;;;;;231.35;123.13;;;;;;;;;;5036984;28;20231;-53
2022/06/08 05:23:25;;;;;;;216.95;115.93;;;;;;;;;;5028025;28;20184;-52
2022/06/08 05:25:52;;;;;;;156.73;106.43;;;;;;;;;;5021602;28;20231;-53
2022/06/08 05:28:18;;;;;;;170.13;105.05;;;;;;;;;;5034689;28;20247;-53
2022/06/08 05:30:44;;;;;;;109.57;91.35;;;;;;;;;;5034605;28;20232;-53
2022/06/08 05:33:10;;;;;;;275.25;134.63;;;;;;;;;;5026848;28;20235;-53
2022/06/08 05:35:37;;;;;;;185.88;110.32;;;;;;;;;;5026792;28;20195;-52
2022/06/08 05:38:03;;;;;;;147.40;99.25;;;;;;;;;;5028318;28;20323;-52
2022/06/08 05:40:32;;;;;;;126.53;98.25;;;;;;;;;;5010738;28;20599;-53
2022/06/08 05:42:59;;;;;;;152.23;101.22;;;;;;;;;;5034857;28;20688;-52
2022/06/08 05:45:26;;;;;;;146.63;106.03;;;;;;;;;;5021145;28;20212;-53
2022/06/08 05:47:52;;;;;;;244.75;132.38;;;;;;;;;;5021465;28;20231;-53
2022/06/08 05:50:19;;;;;;;166.98;108.38;;;;;;;;;;5022906;28;20223;-53
2022/06/08 05:52:45;;;;;;;132.82;98.30;;;;;;;;;;5031528;28;20302;-53
2022/06/08 05:55:13;;;;;;;116.47;94.50;;;;;;;;;;5024184;28;20212;-53
2022/06/08 05:57:39;;;;;;;277.05;146.02;;;;;;;;;;5016239;28;20308;-53
2022/06/08 06:00:06;;;;;;;304.58;159.02;;;;;;;;;;4996894;28;20542;-53
2022/06/08 06:02:32;;;;;;;170.20;121.78;;;;;;;;;;5022678;28;20526;-52
2022/06/08 06:04:58;;;;;;;254.23;144.73;;;;;;;;;;5027466;28;20235;-53
2022/06/08 06:07:25;;;;;;;168.38;122.00;;;;;;;;;;5013453;28;20392;-51
2022/06/08 06:09:51;;;;;;;148.40;113.78;;;;;;;;;;5017746;28;20227;-51
2022/06/08 06:12:17;;;;;;;158.95;113.57;;;;;;;;;;5023586;28;20220;-51
2022/06/08 06:14:45;;;;;;;212.77;134.18;;;;;;;;;;5030109;28;20286;-50
2022/06/08 06:17:11;;;;;;;259.27;141.88;;;;;;;;;;5016627;28;20306;-51
2022/06/08 06:19:37;;;;;;;204.63;141.35;;;;;;;;;;5026551;28;20214;-51
2022/06/08 06:22:04;;;;;;;212.68;140.43;;;;;;;;;;5014718;28;20578;-51
2022/06/08 06:24:30;;;;;;;186.07;134.85;;;;;;;;;;5025061;28;20212;-51
2022/06/08 06:26:56;;;;;;;153.95;127.57;;;;;;;;;;5023156;28;20405;-50
2022/06/08 06:29:22;;;;;;;239.35;153.82;;;;;;;;;;5032224;28;20329;-51
2022/06/08 06:31:54;;;;;;;190.57;136.52;;;;;;;;;;5024573;28;20216;-51
2022/06/08 06:34:22;;;;;;;243.00;154.65;;;;;;;;;;5029192;28;20253;-52
2022/06/08 06:36:48;;;;;;;177.82;135.80;;;;;;;;;;5024978;28;20239;-53
2022/06/08 06:39:14;;;;;;;285.38;172.50;;;;;;;;;;5019030;28;20713;-52
2022/06/08 06:41:40;;;;;;;185.48;141.82;;;;;;;;;;5028868;28;20180;-52
2022/06/08 06:44:06;;;;;;;222.15;153.18;;;;;;;;;;5030172;28;20614;-52
2022/06/08 06:46:32;;;;;;;142.82;126.50;;;;;;;;;;5027233;28;20235;-52
2022/06/08 06:48:58;;;;;;;207.80;151.00;;;;;;;;;;5033214;28;20219;-52
2022/06/08 06:51:24;;;;;;;223.00;147.98;;;;;;;;;;5022608;28;20609;-52
2022/06/08 06:53:50;;;;;;;228.73;160.48;;;;;;;;;;5026761;28;20267;-52
2022/06/08 06:56:16;;;;;;;228.55;156.20;;;;;;;;;;5026103;28;20179;-52
2022/06/08 06:58:42;;;;;;;202.82;150.52;;;;;;;;;;5028201;28;20595;-52
2022/06/08 07:01:11;;;;;;;229.23;162.60;;;;;;;;;;5016005;28;20751;-52
2022/06/08 07:03:37;;;;;;;195.65;149.35;;;;;;;;;;5025905;28;20223;-52
2022/06/08 07:06:03;;;;;;;190.35;144.27;;;;;;;;;;5031609;28;20664;-52
2022/06/08 07:08:29;;;;;;;167.32;138.88;;;;;;;;;;5042775;28;20295;-52
2022/06/08 07:13:41;;;;;;;191.70;147.05;;;;;;;;;;5032034;28;20346;-52
2022/06/08 07:16:07;;;;;;;200.93;149.20;;;;;;;;;;5034823;28;20635;-52
2022/06/08 07:18:34;;;;;;;186.63;148.15;;;;;;;;;;5028418;28;20231;-52
2022/06/08 07:21:00;;;;;;;201.48;145.77;;;;;;;;;;5036261;28;20293;-53
2022/06/08 07:23:26;;;;;;;199.45;146.88;;;;;;;;;;5030234;28;20259;-52
2022/06/08 07:25:52;;;;;;;182.88;144.43;;;;;;;;;;5030212;28;20258;-52
2022/06/08 07:28:18;;;;;;;209.07;153.05;;;;;;;;;;5030256;28;20220;-52
2022/06/08 07:30:44;;;;;;;197.13;148.18;;;;;;;;;;5030651;28;20695;-52
2022/06/08 07:33:10;;;;;;;222.82;152.18;;;;;;;;;;5035209;28;20207;-53
2022/06/08 07:35:36;;;;;;;225.20;152.52;;;;;;;;;;5038672;28;20191;-52
2022/06/08 07:38:02;;;;;;;169.43;141.15;;;;;;;;;;5029629;28;20700;-53
2022/06/08 07:40:28;;;;;;;193.82;149.35;;;;;;;;;;5043446;28;20207;-52
2022/06/08 07:42:54;;;;;;;202.80;158.40;;;;;;;;;;5034741;28;20222;-52
2022/06/08 07:45:20;;;;;;;248.82;169.18;;;;;;;;;;5032739;28;20255;-52
2022/06/08 07:50:31;;;;;;;207.70;150.32;;;;;;;;;;5029950;28;20199;-52
2022/06/08 07:52:57;;;;;;;208.13;154.52;;;;;;;;;;5033543;28;20266;-52
2022/06/08 07:55:23;;;;;;;220.90;159.18;;;;;;;;;;5030797;28;20216;-53
2022/06/08 07:57:50;;;;;;;216.73;159.30;;;;;;;;;;5028381;28;20227;-53
2022/06/08 08:00:17;;;;;;;245.20;165.02;;;;;;;;;;5033880;28;20226;-52
2022/06/08 08:02:42;;;;;;;236.50;163.38;;;;;;;;;;5038659;28;20175;-52
2022/06/08 08:05:11;;;;;;;229.98;163.43;;;;;;;;;;5035668;28;20223;-53
2022/06/08 08:07:37;;;;;;;213.82;157.85;;;;;;;;;;5034962;28;20212;-53
2022/06/08 08:10:04;;;;;;;213.93;160.13;;;;;;;;;;5028814;28;20722;-52
2022/06/08 08:12:30;;;;;;;266.63;184.75;;;;;;;;;;5032785;28;20215;-52
2022/06/08 08:14:56;;;;;;;228.55;167.05;;;;;;;;;;5031167;28;20277;-52
2022/06/08 08:17:22;;;;;;;208.02;161.50;;;;;;;;;;5033656;28;20364;-52
2022/06/08 08:19:48;;;;;;;216.30;167.68;;;;;;;;;;5029034;28;20250;-52
2022/06/08 08:22:15;;;;;;;226.85;175.00;;;;;;;;;;5031595;28;20334;-52
2022/06/08 08:24:41;;;;;;;228.20;176.73;;;;;;;;;;5031348;28;20208;-52
2022/06/08 08:27:07;;;;;;;237.70;175.70;;;;;;;;;;5029731;28;20254;-52
2022/06/08 08:29:33;;;;;;;248.65;182.45;;;;;;;;;;5033903;28;20255;-52
2022/06/08 08:31:59;;;;;;;232.13;179.68;;;;;;;;;;5032743;28;20293;-53
2022/06/08 08:34:25;;;;;;;253.00;187.82;;;;;;;;;;5039984;28;20231;-52
2022/06/08 08:36:52;;;;;;;288.13;200.95;;;;;;;;;;5037643;28;20222;-53
2022/06/08 08:39:19;;;;;;;259.60;190.80;;;;;;;;;;5039835;28;20215;-52
2022/06/08 08:44:39;;;;;;;252.18;186.57;;;;;;;;;;5033384;28;20215;-53
2022/06/08 08:47:05;;;;;;;262.13;193.90;;;;;;;;;;5036230;28;20230;-53
2022/06/08 08:49:32;;;;;;;236.07;183.65;;;;;;;;;;5033203;28;20219;-52
2022/06/08 08:51:59;;;;;;;250.27;187.85;;;;;;;;;;5036732;28;20233;-53
2022/06/08 08:54:29;;;;;;;239.90;182.38;;;;;;;;;;5039810;28;20227;-52
2022/06/08 08:56:57;;;;;;;268.02;192.85;;;;;;;;;;5035813;28;20614;-52
2022/06/08 08:59:25;;;;;;;237.73;183.95;;;;;;;;;;5036510;28;20201;-52
2022/06/08 09:01:52;;;;;;;255.93;191.10;;;;;;;;;;5038346;28;20224;-52
2022/06/08 09:04:34;;;;;;;259.20;191.93;;;;;;;;;;5034414;28;20209;-53
2022/06/08 09:07:14;;;;;;;277.63;197.50;;;;;;;;;;5035520;28;20212;-52
2022/06/08 09:09:40;;;;;;;268.38;191.95;;;;;;;;;;5034803;28;20239;-52
2022/06/08 09:12:06;;;;;;;236.40;184.10;;;;;;;;;;5037856;28;20719;-53
2022/06/08 09:14:46;;;;;;;254.98;192.13;;;;;;;;;;5039261;28;20187;-53
2022/06/08 09:17:15;;;;;;;282.60;202.07;;;;;;;;;;5031410;28;20262;-53
2022/06/08 09:19:44;;;;;;;268.25;200.10;;;;;;;;;;5036355;28;20711;-53
2022/06/08 09:22:10;;;;;;;275.33;200.68;;;;;;;;;;5037576;28;20288;-53
2022/06/08 09:24:39;;;;;;;293.52;211.48;;;;;;;;;;5037858;28;20591;-52
2022/06/08 09:27:28;;;;;;;243.60;184.63;;;;;;;;;;5039567;28;20216;-53
2022/06/08 09:30:13;;;;;;;272.05;195.82;;;;;;;;;;5029717;28;20604;-52
2022/06/08 09:32:39;;;;;;;252.52;181.02;;;;;;;;;;5036584;28;20195;-53
2022/06/08 09:35:26;;;;;;;262.15;196.35;;;;;;;;;;5034778;28;20223;-52
2022/06/08 09:37:54;;;;;;;259.13;190.38;;;;;;;;;;5035516;28;20313;-53
2022/06/08 09:40:36;;;;;;;270.20;196.98;;;;;;;;;;5036905;28;20302;-53
2022/06/08 09:43:18;;;;;;;256.63;194.85;;;;;;;;;;5039680;28;20295;-52
2022/06/08 09:45:50;;;;;;;292.02;210.00;;;;;;;;;;5036310;28;20223;-52
2022/06/08 09:51:27;;;;;;;254.38;198.27;;;;;;;;;;5035071;28;20701;-53
2022/06/08 09:54:11;;;;;;;250.50;197.52;;;;;;;;;;5035520;28;20435;-53
2022/06/08 09:56:43;;;;;;;284.58;207.55;;;;;;;;;;5033524;28;20215;-53
2022/06/08 09:59:21;;;;;;;284.17;213.85;;;;;;;;;;5035621;28;20723;-52
2022/06/08 10:01:52;;;;;;;240.75;196.07;;;;;;;;;;5032593;28;20734;-52
2022/06/08 10:04:28;;;;;;;293.55;210.68;;;;;;;;;;5036143;28;20207;-52
2022/06/08 10:06:59;;;;;;;281.08;205.13;;;;;;;;;;5039732;28;20223;-53
2022/06/08 10:09:25;;;;;;;288.48;215.65;;;;;;;;;;5038514;28;20228;-52
2022/06/08 10:12:16;;;;;;;257.90;206.30;;;;;;;;;;5037397;28;20211;-53
2022/06/08 10:14:51;;;;;;;274.42;215.73;;;;;;;;;;5034627;28;20199;-53
2022/06/08 10:17:21;;;;;;;278.02;216.90;;;;;;;;;;5033948;28;20257;-53
2022/06/08 10:19:55;;;;;;;286.70;219.65;;;;;;;;;;5033344;28;20239;-52
2022/06/08 10:22:23;;;;;;;318.67;232.25;;;;;;;;;;5037200;28;20260;-52
2022/06/08 10:24:55;;;;;;;327.55;234.63;;;;;;;;;;5033672;28;20215;-52
2022/06/08 10:27:24;;;;;;;301.35;226.05;;;;;;;;;;5035755;28;20463;-53
2022/06/08 10:29:57;;;;;;;301.35;226.68;;;;;;;;;;5034036;28;20244;-52
2022/06/08 10:32:39;;;;;;;335.23;238.27;;;;;;;;;;5038728;28;20187;-52
2022/06/08 10:35:16;;;;;;;333.83;238.27;;;;;;;;;;5028869;28;20216;-53
2022/06/08 10:37:42;;;;;;;317.88;233.05;;;;;;;;;;5035808;28;20265;-52
2022/06/08 10:40:09;;;;;;;311.58;224.18;;;;;;;;;;5033972;28;20211;-52
2022/06/08 10:42:40;;;;;;;299.17;218.30;;;;;;;;;;5034953;28;20211;-53
2022/06/08 10:45:28;;;;;;;306.23;215.57;;;;;;;;;;5033061;28;20220;-52
2022/06/08 10:47:58;;;;;;;263.90;206.10;;;;;;;;;;5031227;28;20220;-52
2022/06/08 10:50:31;;;;;;;309.70;227.90;;;;;;;;;;5034990;28;20248;-52
2022/06/08 10:54:53;;;;;;;310.00;235.68;;;;;;;;;;5035683;28;20216;-52
2022/06/08 10:55:44;;;;;;;301.88;227.50;;;;;;;;;;5034769;28;20300;-52
2022/06/08 10:58:15;;;;;;;302.23;226.82;;;;;;;;;;5036753;28;20257;-52
2022/06/08 11:00:52;;;;;;;274.00;219.85;;;;;;;;;;5034825;28;20211;-51
2022/06/08 11:03:44;;;;;;;326.92;246.27;;;;;;;;;;5037443;28;20632;-52
2022/06/08 11:06:11;;;;;;;371.25;271.58;;;;;;;;;;5030565;28;20286;-52
2022/06/08 11:08:51;;;;;;;349.73;266.10;;;;;;;;;;5033739;28;20679;-52
2022/06/08 11:11:37;;;;;;;324.75;256.15;;;;;;;;;;5035632;28;20183;-52
2022/06/08 11:14:23;;;;;;;334.60;248.93;;;;;;;;;;5033045;28;20215;-52
2022/06/08 11:16:49;;;;;;;330.27;250.02;;;;;;;;;;5032670;28;20691;-52
2022/06/08 11:19:16;;;;;;;322.48;249.35;;;;;;;;;;5031564;28;20223;-52
2022/06/08 11:21:45;;;;;;;343.95;271.90;;;;;;;;;;5042196;28;20583;-52
2022/06/08 11:24:20;;;;;;;328.05;263.10;;;;;;;;;;5014289;28;20251;-52
2022/06/08 11:27:15;;;;;;;364.88;275.60;;;;;;;;;;5038011;28;20565;-52
2022/06/08 11:29:43;;;;;;;327.92;262.27;;;;;;;;;;5012520;28;20224;-52
2022/06/08 11:32:27;;;;;;;333.40;263.15;;;;;;;;;;5038579;28;20215;-52
2022/06/08 11:35:03;;;;;;;336.05;264.75;;;;;;;;;;5031545;28;20266;-52
2022/06/08 11:37:35;;;;;;;305.67;252.68;;;;;;;;;;5033733;28;20880;-52
2022/06/08 11:40:27;;;;;;;339.70;265.52;;;;;;;;;;5034275;28;20475;-52
2022/06/08 11:42:53;;;;;;;354.45;275.33;;;;;;;;;;5027991;28;20207;-52
2022/06/08 11:45:22;;;;;;;341.75;264.23;;;;;;;;;;5034991;28;20227;-52
2022/06/08 11:48:04;;;;;;;340.83;253.55;;;;;;;;;;5032117;28;20208;-52
2022/06/08 11:50:31;;;;;;;355.30;282.45;;;;;;;;;;5031597;28;20211;-52
2022/06/08 11:53:02;;;;;;;323.73;264.98;;;;;;;;;;5032488;28;20695;-52
2022/06/08 11:55:28;;;;;;;321.10;268.88;;;;;;;;;;5033124;28;20702;-52
2022/06/08 11:58:08;;;;;;;368.13;284.25;;;;;;;;;;5031588;28;20234;-52
2022/06/08 12:00:36;;;;;;;323.70;265.50;;;;;;;;;;5031800;28;20224;-52
2022/06/08 12:03:22;;;;;;;346.90;276.33;;;;;;;;;;5031381;28;20704;-52
2022/06/08 12:05:51;;;;;;;322.48;271.27;;;;;;;;;;5017723;28;20200;-52
2022/06/08 12:08:20;;;;;;;379.50;292.13;;;;;;;;;;5031129;28;20600;-52
2022/06/08 12:10:46;;;;;;;357.60;282.85;;;;;;;;;;5035537;28;20557;-52
2022/06/08 12:13:18;;;;;;;348.20;276.67;;;;;;;;;;5033623;28;20331;-52
2022/06/08 12:15:49;;;;;;;348.08;287.00;;;;;;;;;;5037771;28;20295;-52
2022/06/08 12:18:21;;;;;;;356.58;294.13;;;;;;;;;;5032479;28;20576;-52
2022/06/08 12:20:48;;;;;;;350.60;283.20;;;;;;;;;;5031641;28;20207;-52
2022/06/08 12:23:14;;;;;;;374.25;293.88;;;;;;;;;;5032046;28;20184;-52
2022/06/08 12:25:40;;;;;;;377.42;292.67;;;;;;;;;;5030752;28;20704;-52
2022/06/08 12:28:09;;;;;;;379.70;296.60;;;;;;;;;;5032023;28;20208;-52
2022/06/08 12:30:37;;;;;;;357.10;284.25;;;;;;;;;;5032227;28;20298;-52
2022/06/08 12:33:05;;;;;;;381.52;294.55;;;;;;;;;;5032435;28;20215;-52
2022/06/08 12:35:31;;;;;;;366.05;291.92;;;;;;;;;;5036318;28;20683;-52
2022/06/08 12:38:18;;;;;;;314.40;267.23;;;;;;;;;;5030709;28;20224;-52
2022/06/08 12:41:03;;;;;;;370.42;294.35;;;;;;;;;;5032842;28;20750;-52
2022/06/08 12:43:37;;;;;;;372.25;293.17;;;;;;;;;;5030481;28;20286;-52
2022/06/08 12:46:09;;;;;;;363.58;287.65;;;;;;;;;;5030102;28;20255;-52
2022/06/08 12:48:38;;;;;;;382.75;296.65;;;;;;;;;;5030930;28;20219;-52
2022/06/08 12:51:24;;;;;;;358.27;282.98;;;;;;;;;;5031512;28;20220;-51
2022/06/08 12:53:51;;;;;;;420.00;321.15;;;;;;;;;;5039172;28;20184;-52
2022/06/08 12:56:19;;;;;;;364.42;293.30;;;;;;;;;;5036062;28;20188;-52
2022/06/08 12:58:49;;;;;;;410.20;315.48;;;;;;;;;;5033450;28;20222;-52
2022/06/08 13:01:15;;;;;;;403.25;317.95;;;;;;;;;;5031532;28;20569;-52
2022/06/08 13:03:43;;;;;;;384.45;316.13;;;;;;;;;;5038078;28;20235;-52
2022/06/08 13:06:09;;;;;;;407.55;316.73;;;;;;;;;;5036624;28;20298;-52
2022/06/08 13:08:35;;;;;;;402.05;327.15;;;;;;;;;;5032881;28;20212;-52
2022/06/08 13:11:04;;;;;;;368.42;300.92;;;;;;;;;;5035613;28;20179;-52
2022/06/08 13:13:32;;;;;;;383.52;313.88;;;;;;;;;;5032602;28;20234;-53
2022/06/08 13:15:59;;;;;;;359.83;302.48;;;;;;;;;;5029177;28;20227;-52
2022/06/08 13:18:26;;;;;;;427.33;328.85;;;;;;;;;;5031927;28;20250;-53
2022/06/08 13:20:54;;;;;;;355.23;300.23;;;;;;;;;;5035191;28;20219;-52
2022/06/08 13:23:20;;;;;;;405.65;324.73;;;;;;;;;;5033274;28;20575;-52
2022/06/08 13:25:46;;;;;;;396.10;313.58;;;;;;;;;;5037925;28;20611;-52
2022/06/08 13:28:14;;;;;;;410.88;330.02;;;;;;;;;;5034773;28;20218;-52
2022/06/08 13:30:40;;;;;;;377.48;310.58;;;;;;;;;;5034564;28;20598;-52
2022/06/08 13:33:56;;;;;;;386.00;323.27;;;;;;;;;;5036685;28;20383;-52
2022/06/08 13:35:53;;;;;;;384.55;311.48;;;;;;;;;;5033554;28;20291;-52
2022/06/08 13:38:20;;;;;;;392.92;322.02;;;;;;;;;;5035333;28;20286;-52
2022/06/08 13:40:46;;;;;;;372.77;316.73;;;;;;;;;;5020635;28;20222;-52
2022/06/08 13:43:12;;;;;;;399.75;333.38;;;;;;;;;;5045474;28;20216;-52
2022/06/08 13:45:39;;;;;;;379.92;309.85;;;;;;;;;;5032937;28;20759;-52
2022/06/08 13:48:07;;;;;;;395.55;323.10;;;;;;;;;;5035979;28;20224;-52
2022/06/08 13:50:37;;;;;;;372.05;318.00;;;;;;;;;;5031571;28;20303;-53
2022/06/08 13:53:05;;;;;;;424.02;331.17;;;;;;;;;;5020441;28;20598;-52
2022/06/08 13:55:36;;;;;;;427.00;346.35;;;;;;;;;;5031497;28;20280;-52
2022/06/08 13:58:03;;;;;;;440.70;346.70;;;;;;;;;;5019780;28;20747;-53
2022/06/08 14:00:30;;;;;;;419.05;317.02;;;;;;;;;;5019299;28;21243;-52
2022/06/08 14:02:58;;;;;;;428.67;319.80;;;;;;;;;;5025744;28;20939;-52
2022/06/08 14:12:59;;;;;;;373.35;300.42;;;;;;;;;;5022903;28;20294;-52
2022/06/08 14:13:45;;;;;;;356.98;287.20;;;;;;;;;;5036671;28;20214;-51
2022/06/08 14:16:11;;;;;;;459.85;327.17;;;;;;;;;;5036449;28;20208;-51
2022/06/08 14:18:39;;;;;;;359.75;296.52;;;;;;;;;;5038138;28;20277;-51
2022/06/08 14:21:05;;;;;;;413.73;309.35;;;;;;;;;;5033454;28;20585;-51
2022/06/08 14:23:32;;;;;;;343.58;280.90;;;;;;;;;;5038029;28;20207;-51
2022/06/08 14:25:58;;;;;;;368.75;281.80;;;;;;;;;;5039622;28;20219;-52
2022/06/08 14:28:24;;;;;;;393.77;294.40;;;;;;;;;;5031652;28;20592;-52
2022/06/08 14:30:52;;;;;;;361.75;271.52;;;;;;;;;;5042307;28;20222;-52